Date,TemperatureHighF,TemperatureAvgF,TemperatureLowF,DewpointHighF,DewpointAvgF,DewpointLowF,HumidityHigh,HumidityAvg,HumidityLow,PressureMaxIn,PressureMinIn,WindSpeedMaxMPH,WindSpeedAvgMPH,GustSpeedMaxMPH,PrecipitationSumIn
2013-12-1,69.8,62.7,54.9,57.0,38.8,20.0,65,43,24,31.05,30.75,14,4,0,0.00
2013-12-2,76.8,65.6,58.0,60.0,36.6,17.0,67,38,19,30.75,30.45,10,3,0,0.00
2013-12-3,74.8,65.8,58.2,61.0,32.1,14.0,62,32,16,30.50,30.39,14,6,0,0.08
2013-12-4,77.9,71.1,66.7,61.0,35.0,19.0,57,29,15,30.59,30.48,17,8,0,0.00
2013-12-5,72.7,50.3,35.7,36.0,24.7,14.0,63,42,15,30.91,30.57,15,6,0,0.00
2013-12-6,39.0,35.5,31.1,23.0,13.3,6.0,59,41,29,31.29,30.86,13,6,0,0.08
2013-12-7,33.6,32.1,30.4,20.0,14.3,6.0,63,49,32,31.31,31.18,15,4,0,0.01
2013-12-8,42.8,38.0,32.2,21.0,9.3,4.0,43,31,25,31.17,30.94,7,1,0,0.01
2013-12-9,43.4,41.0,35.7,10.0,6.8,4.0,34,24,22,31.22,30.94,12,4,0,0.04
2013-12-10,43.7,34.8,29.1,30.0,21.1,11.0,72,58,37,31.36,31.21,12,3,0,0.00
2013-12-11,50.5,40.4,29.1,39.0,24.9,6.0,71,55,36,31.41,31.23,7,1,0,0.00
2013-12-12,51.8,41.0,31.3,36.0,26.4,8.0,72,57,33,31.45,31.23,5,1,0,0.00
2013-12-13,53.0,48.1,42.7,42.0,27.5,10.0,72,51,21,31.22,30.69,6,1,0,0.12
2013-12-14,53.8,46.5,35.6,38.0,20.7,6.0,69,41,16,31.15,30.70,14,4,0,0.01
2013-12-15,55.3,39.7,27.5,37.0,23.0,5.0,71,52,34,31.27,31.14,5,1,0,0.00
2013-12-16,62.9,45.8,30.8,43.0,28.3,6.0,71,52,31,31.20,31.07,12,2,0,0.00
2013-12-17,70.4,49.6,34.0,47.0,34.0,8.0,71,57,26,31.19,31.07,6,1,0,0.00
2013-12-18,68.5,54.3,37.3,53.0,35.7,9.0,68,51,21,31.16,30.93,11,3,0,0.00
2013-12-19,76.0,65.4,55.1,64.0,38.4,23.0,68,40,18,30.92,30.65,22,7,0,0.01
2013-12-20,76.2,72.3,68.5,56.0,33.4,18.0,51,26,14,30.68,30.47,15,8,0,0.00
2013-12-21,74.2,62.1,47.4,41.0,18.0,1.0,39,19,8,30.65,30.34,27,6,0,1.03
2013-12-22,51.1,46.6,34.8,40.0,18.2,-2.0,69,40,11,31.21,30.62,13,3,0,0.00
2013-12-23,50.0,38.2,31.1,35.0,23.9,10.0,70,57,39,31.42,31.21,11,3,0,0.00
2013-12-24,58.1,41.4,28.4,37.0,23.7,3.0,70,51,29,31.44,31.19,9,2,0,0.00
2013-12-25,54.3,47.4,36.9,44.0,25.6,4.0,69,48,15,31.23,31.14,12,2,0,0.08
2013-12-26,57.2,48.3,40.9,46.0,19.2,1.0,67,36,15,31.28,31.15,5,1,0,0.01
2013-12-27,57.3,48.7,42.8,44.0,29.6,11.0,68,50,27,31.29,31.18,6,1,0,0.00
2013-12-28,58.0,46.8,40.3,40.0,28.0,11.0,70,50,28,31.18,30.88,4,0,0,0.00
2013-12-29,62.9,49.4,36.9,49.0,37.9,19.0,70,65,43,31.07,30.82,12,2,0,0.00
2013-12-30,42.0,38.0,35.2,33.0,29.1,26.0,80,70,66,31.29,31.06,11,4,0,0.00
2013-12-31,46.7,40.5,36.3,36.0,29.9,14.0,72,66,34,31.35,31.14,4,1,0,0.00